Time;durP1;ratioP1;P1;durP2;ratioP2;P2;SDS_P1;SDS_P2;PMS_P1;PMS_P2;Temp;Humidity;BMP_temperature;BMP_pressure;BME280_temperature;BME280_humidity;BME280_pressure;Samples;Min_cycle;Max_cycle;Signal;HPM_P1;HPM_P2
2022/12/04 00:01:49;;;;;;;11.10;7.15;;;19.20;58.20;;;;;;5023906;28;20068;-63
2022/12/04 00:04:14;;;;;;;12.00;7.25;;;19.30;58.10;;;;;;5026800;28;20066;-62
2022/12/04 00:06:40;;;;;;;10.90;6.80;;;19.20;58.00;;;;;;5019412;28;20047;-71
2022/12/04 00:09:05;;;;;;;9.57;6.40;;;19.20;57.90;;;;;;5027086;28;20045;-72
2022/12/04 00:11:32;;;;;;;10.93;6.43;;;19.20;57.80;;;;;;5022334;28;20104;-69
2022/12/04 00:13:58;;;;;;;14.18;6.70;;;19.20;57.80;;;;;;5020592;28;20029;-61
2022/12/04 00:16:27;;;;;;;10.02;6.70;;;19.20;57.80;;;;;;5027631;28;20531;-65
2022/12/04 00:18:53;;;;;;;10.60;7.15;;;19.20;57.70;;;;;;5025154;28;20029;-65
2022/12/04 00:21:20;;;;;;;9.77;6.32;;;19.20;57.70;;;;;;5042618;28;20042;-61
2022/12/04 00:23:46;;;;;;;9.82;6.45;;;19.20;57.70;;;;;;5026767;28;20061;-68
2022/12/04 00:26:15;;;;;;;11.73;6.32;;;19.20;57.60;;;;;;5024239;28;20041;-65
2022/12/04 00:28:41;;;;;;;11.23;6.78;;;19.20;57.50;;;;;;5025416;28;20044;-67
2022/12/04 00:31:09;;;;;;;10.70;6.50;;;19.20;57.50;;;;;;5024663;28;20043;-65
2022/12/04 00:33:35;;;;;;;9.95;6.57;;;19.20;57.40;;;;;;5022767;28;20420;-69
2022/12/04 00:36:04;;;;;;;9.70;6.43;;;19.30;57.50;;;;;;5028747;28;20043;-71
2022/12/04 00:38:30;;;;;;;10.07;6.63;;;19.20;57.40;;;;;;5022152;28;20081;-67
2022/12/04 00:40:57;;;;;;;10.32;6.13;;;19.20;57.30;;;;;;5026579;28;20700;-63
2022/12/04 00:43:23;;;;;;;10.45;6.40;;;19.20;57.30;;;;;;5027427;28;20496;-69
2022/12/04 00:45:49;;;;;;;10.05;6.50;;;19.20;57.30;;;;;;5020971;28;20049;-62
2022/12/04 00:48:15;;;;;;;9.50;6.25;;;19.20;57.30;;;;;;5023037;28;20046;-65
2022/12/04 00:50:40;;;;;;;9.70;6.60;;;19.20;57.30;;;;;;5038443;28;20033;-62
2022/12/04 00:53:06;;;;;;;10.27;6.40;;;19.20;57.20;;;;;;5016141;28;20049;-66
2022/12/04 00:55:32;;;;;;;8.88;5.70;;;19.20;57.20;;;;;;5032336;28;20486;-65
2022/12/04 00:57:57;;;;;;;10.55;6.68;;;19.20;57.90;;;;;;5023894;28;20053;-61
2022/12/04 01:00:23;;;;;;;8.57;5.70;;;19.20;57.10;;;;;;5022914;28;20056;-65
2022/12/04 01:02:49;;;;;;;9.10;6.32;;;19.20;57.00;;;;;;5025427;28;22219;-71
2022/12/04 01:05:14;;;;;;;10.35;6.55;;;19.20;57.00;;;;;;5024730;28;20503;-68
2022/12/04 01:07:40;;;;;;;9.32;6.10;;;19.20;56.90;;;;;;5017671;28;20053;-61
2022/12/04 01:10:10;;;;;;;9.50;6.03;;;19.20;56.90;;;;;;5021697;28;20029;-65
2022/12/04 01:12:35;;;;;;;8.50;5.93;;;19.20;56.80;;;;;;5020244;28;20199;-64
2022/12/04 01:15:01;;;;;;;10.98;6.68;;;19.20;56.90;;;;;;5014308;28;20045;-70
2022/12/04 01:17:27;;;;;;;10.98;6.43;;;19.20;56.80;;;;;;5022546;28;20079;-63
2022/12/04 01:19:53;;;;;;;11.18;6.63;;;19.20;56.70;;;;;;5024048;28;20064;-72
2022/12/04 01:22:18;;;;;;;9.07;6.65;;;19.20;56.70;;;;;;5024885;28;20045;-68
2022/12/04 01:24:45;;;;;;;9.77;6.60;;;19.20;56.70;;;;;;5022219;28;20037;-61
2022/12/04 01:27:10;;;;;;;9.73;6.63;;;19.20;56.70;;;;;;5022000;28;20052;-71
2022/12/04 01:29:36;;;;;;;10.32;6.55;;;19.20;56.70;;;;;;5034183;28;20026;-69
2022/12/04 01:32:05;;;;;;;11.02;6.53;;;19.20;56.60;;;;;;5024159;28;20037;-64
2022/12/04 01:34:30;;;;;;;9.60;6.70;;;19.20;56.60;;;;;;5018821;28;20041;-69
2022/12/04 01:36:56;;;;;;;10.10;6.63;;;19.20;56.50;;;;;;5023830;28;20507;-72
2022/12/04 01:39:21;;;;;;;8.50;6.30;;;19.20;56.50;;;;;;5023921;28;20428;-73
2022/12/04 01:41:47;;;;;;;8.52;6.13;;;19.20;56.50;;;;;;5022909;28;20029;-72
2022/12/04 01:44:19;;;;;;;8.85;5.93;;;19.20;56.40;;;;;;5025329;28;20034;-69
2022/12/04 01:46:56;;;;;;;11.93;6.20;;;19.20;56.40;;;;;;5021815;28;20092;-73
2022/12/04 01:49:27;;;;;;;9.00;6.00;;;19.20;56.40;;;;;;5024263;28;20570;-71
2022/12/04 01:52:12;;;;;;;9.40;6.30;;;19.20;56.40;;;;;;5012751;28;21923;-70
2022/12/04 01:54:44;;;;;;;8.18;5.85;;;19.20;56.30;;;;;;5021927;28;20054;-61
2022/12/04 01:57:13;;;;;;;9.05;6.10;;;19.20;56.40;;;;;;5024038;28;20036;-67
2022/12/04 01:59:48;;;;;;;9.65;6.32;;;19.20;56.30;;;;;;5022441;28;20672;-68
2022/12/04 02:02:18;;;;;;;8.65;6.03;;;19.20;56.30;;;;;;5022404;28;20131;-71
2022/12/04 02:04:45;;;;;;;10.65;6.63;;;19.10;56.20;;;;;;5022152;28;20426;-70
2022/12/04 02:07:11;;;;;;;8.77;5.68;;;19.20;56.30;;;;;;5019047;28;20052;-73
2022/12/04 02:09:38;;;;;;;10.32;6.40;;;19.10;56.20;;;;;;5023698;28;20052;-65
2022/12/04 02:12:21;;;;;;;9.38;6.28;;;19.20;56.20;;;;;;5039051;28;20523;-72
2022/12/04 02:15:15;;;;;;;10.55;6.40;;;19.20;56.10;;;;;;5023575;28;20408;-72
2022/12/04 02:18:08;;;;;;;9.38;6.05;;;19.20;56.00;;;;;;5021189;28;20045;-72
2022/12/04 02:20:54;;;;;;;9.13;5.93;;;19.20;56.00;;;;;;5024044;28;20096;-72
2022/12/04 02:23:38;;;;;;;8.88;6.10;;;19.20;55.90;;;;;;5023292;28;20048;-71
2022/12/04 02:26:17;;;;;;;9.57;6.40;;;19.20;55.90;;;;;;5021263;28;20420;-67
2022/12/04 02:29:19;;;;;;;10.13;6.13;;;19.20;55.90;;;;;;5023616;28;20606;-72
2022/12/04 02:32:28;;;;;;;9.35;6.32;;;19.20;55.80;;;;;;5024102;28;20036;-68
2022/12/04 02:35:14;;;;;;;8.68;6.18;;;19.20;55.80;;;;;;5003876;28;20045;-60
2022/12/04 02:37:53;;;;;;;9.20;6.30;;;19.20;55.80;;;;;;5001357;28;20050;-64
2022/12/04 02:40:27;;;;;;;8.95;6.40;;;19.20;56.50;;;;;;5025457;28;20112;-68
2022/12/04 02:43:15;;;;;;;10.23;6.88;;;19.20;55.70;;;;;;5020288;28;20473;-68
2022/12/04 02:45:45;;;;;;;;;;;19.20;55.70;;;;;;5022043;28;20037;-68
2022/12/04 02:48:17;;;;;;;9.95;6.25;;;19.20;55.70;;;;;;5023120;28;20028;-68
2022/12/04 02:50:46;;;;;;;10.57;6.40;;;19.20;55.70;;;;;;5020067;28;20044;-72
2022/12/04 02:53:22;;;;;;;9.65;6.53;;;19.20;55.70;;;;;;5012342;28;20190;-70
2022/12/04 02:55:52;;;;;;;9.90;6.70;;;19.20;55.60;;;;;;5024863;28;20041;-66
2022/12/04 02:58:28;;;;;;;9.82;5.97;;;19.20;55.60;;;;;;5028133;28;20087;-71
2022/12/04 03:00:56;;;;;;;9.70;6.20;;;19.10;55.40;;;;;;5026103;28;20037;-73
2022/12/04 03:03:25;;;;;;;8.50;6.40;;;19.20;55.50;;;;;;5031080;28;20357;-70
2022/12/04 03:06:10;;;;;;;8.98;5.93;;;19.20;55.50;;;;;;5021644;28;20044;-66
2022/12/04 03:08:44;;;;;;;9.57;6.30;;;19.20;55.30;;;;;;5026397;28;20054;-72
2022/12/04 03:11:10;;;;;;;9.10;6.20;;;19.20;55.30;;;;;;5028174;28;20092;-69
2022/12/04 03:13:44;;;;;;;10.57;6.88;;;19.20;55.40;;;;;;5024173;28;20038;-64
2022/12/04 03:16:14;;;;;;;10.02;6.75;;;19.20;55.30;;;;;;5031180;28;20777;-69
2022/12/04 03:18:45;;;;;;;10.85;6.50;;;19.20;55.30;;;;;;5024590;28;20042;-65
2022/12/04 03:21:16;;;;;;;10.63;6.07;;;19.20;55.20;;;;;;5026181;28;20052;-68
2022/12/04 03:23:48;;;;;;;10.40;6.82;;;19.20;55.20;;;;;;5026460;28;20040;-72
2022/12/04 03:26:37;;;;;;;9.73;6.32;;;19.20;55.20;;;;;;5022595;28;20108;-72
2022/12/04 03:29:14;;;;;;;8.70;6.60;;;19.20;55.00;;;;;;5024785;28;20055;-70
2022/12/04 03:32:09;;;;;;;9.35;6.45;;;19.20;55.10;;;;;;5023250;28;20098;-63
2022/12/04 03:34:54;;;;;;;8.52;6.28;;;19.10;55.00;;;;;;5020809;28;20539;-66
2022/12/04 03:37:39;;;;;;;9.32;6.22;;;19.20;55.10;;;;;;5026970;28;20047;-61
2022/12/04 03:40:29;;;;;;;10.07;6.70;;;19.20;55.10;;;;;;5023675;28;20041;-66
2022/12/04 03:43:12;;;;;;;11.85;6.60;;;19.10;55.10;;;;;;5025480;28;20061;-67
2022/12/04 03:45:50;;;;;;;10.85;7.00;;;19.20;55.00;;;;;;5026722;28;20607;-62
2022/12/04 03:48:24;;;;;;;9.38;6.55;;;19.10;54.90;;;;;;5024905;28;20051;-71
2022/12/04 03:51:17;;;;;;;8.43;6.22;;;19.10;55.00;;;;;;5028233;28;20516;-71
2022/12/04 03:53:58;;;;;;;8.63;6.03;;;19.10;54.90;;;;;;5010669;28;20486;-63
2022/12/04 03:56:28;;;;;;;9.70;6.50;;;19.10;54.90;;;;;;5026503;28;20045;-71
2022/12/04 03:59:03;;;;;;;8.93;6.47;;;19.10;54.90;;;;;;5023430;28;20052;-67
2022/12/04 04:01:37;;;;;;;8.88;6.63;;;19.10;54.90;;;;;;5025476;28;20049;-60
2022/12/04 04:04:06;;;;;;;8.55;6.53;;;19.10;55.00;;;;;;5033127;28;20933;-71
2022/12/04 04:06:41;;;;;;;9.10;6.22;;;19.10;54.90;;;;;;5024612;28;20049;-67
2022/12/04 04:09:16;;;;;;;10.55;7.13;;;19.10;54.90;;;;;;5024950;28;20084;-67
2022/12/04 04:11:48;;;;;;;9.85;6.90;;;19.10;54.80;;;;;;5026748;28;20167;-64
2022/12/04 04:25:42;;;;;;;8.23;6.65;;;19.10;54.60;;;;;;5025812;28;20045;-67
2022/12/04 04:28:27;;;;;;;9.25;6.65;;;19.10;54.60;;;;;;5024877;28;20037;-69
2022/12/04 04:30:55;;;;;;;11.07;7.57;;;19.10;54.60;;;;;;5028177;28;20099;-65
2022/12/04 04:33:21;;;;;;;9.15;6.80;;;19.10;54.60;;;;;;5024285;28;20492;-65
2022/12/04 04:35:58;;;;;;;9.70;7.05;;;19.10;54.50;;;;;;5008473;28;20088;-62
2022/12/04 04:38:27;;;;;;;9.65;7.13;;;19.20;54.80;;;;;;5027778;28;20168;-64
2022/12/04 04:41:03;;;;;;;10.05;6.88;;;19.10;54.50;;;;;;5024031;28;20057;-63
2022/12/04 04:43:34;;;;;;;10.85;7.18;;;19.10;54.40;;;;;;5026671;28;20416;-66
2022/12/04 04:46:13;;;;;;;9.65;6.57;;;19.10;54.30;;;;;;5027317;28;20056;-65
2022/12/04 04:48:46;;;;;;;8.43;6.45;;;19.20;54.30;;;;;;5027239;28;20061;-63
2022/12/04 04:51:13;;;;;;;9.57;6.55;;;19.10;54.20;;;;;;5024553;28;20135;-64
2022/12/04 04:53:47;;;;;;;10.43;7.30;;;19.10;54.30;;;;;;5011796;28;20053;-61
2022/12/04 04:56:13;;;;;;;9.48;6.93;;;19.10;54.20;;;;;;5025943;28;20496;-62
2022/12/04 04:58:40;;;;;;;12.18;6.95;;;19.10;54.20;;;;;;5024043;28;20455;-66
2022/12/04 05:01:26;;;;;;;9.43;6.78;;;19.10;54.20;;;;;;5020513;28;20053;-66
2022/12/04 05:03:55;;;;;;;9.77;6.57;;;19.10;54.10;;;;;;5015221;28;20048;-69
2022/12/04 05:06:20;;;;;;;9.02;6.97;;;19.10;54.20;;;;;;5021756;28;20041;-70
2022/12/04 05:08:48;;;;;;;9.50;6.88;;;19.10;54.10;;;;;;5023451;28;20033;-72
2022/12/04 05:11:15;;;;;;;10.23;7.40;;;19.10;54.80;;;;;;5024706;28;20591;-70
2022/12/04 05:13:42;;;;;;;8.82;6.75;;;19.20;54.10;;;;;;5020935;28;20041;-65
2022/12/04 05:16:11;;;;;;;9.05;6.45;;;19.10;54.10;;;;;;5029007;28;20058;-67
2022/12/04 05:18:37;;;;;;;9.32;6.97;;;19.10;54.00;;;;;;5026569;28;20042;-64
2022/12/04 05:21:08;;;;;;;10.15;7.07;;;19.10;54.00;;;;;;5021571;28;20390;-69
2022/12/04 05:23:34;;;;;;;10.48;6.93;;;19.10;54.00;;;;;;5021690;28;20132;-69
2022/12/04 05:26:04;;;;;;;9.23;6.82;;;19.10;54.00;;;;;;5022231;28;20050;-64
2022/12/04 05:28:29;;;;;;;10.13;7.13;;;19.10;53.90;;;;;;5023208;28;20052;-71
2022/12/04 05:30:56;;;;;;;9.02;6.70;;;19.10;53.90;;;;;;5027497;28;20385;-70
2022/12/04 05:33:22;;;;;;;9.80;7.10;;;19.10;53.90;;;;;;5024995;28;20074;-73
2022/12/04 05:36:09;;;;;;;10.15;7.30;;;19.10;53.80;;;;;;5024278;28;20042;-66
2022/12/04 05:38:37;;;;;;;10.32;7.43;;;19.10;53.80;;;;;;5021898;28;20053;-71
2022/12/04 05:41:05;;;;;;;10.32;7.15;;;19.10;53.80;;;;;;5022516;28;20046;-62
2022/12/04 05:43:31;;;;;;;8.35;6.60;;;19.10;53.80;;;;;;5025705;28;20045;-62
2022/12/04 05:46:05;;;;;;;9.27;6.97;;;19.10;53.80;;;;;;5020930;28;20045;-60
2022/12/04 05:48:31;;;;;;;10.63;7.13;;;19.10;53.70;;;;;;5020653;28;20054;-69
2022/12/04 05:50:57;;;;;;;9.73;6.97;;;19.10;53.70;;;;;;5022681;28;20049;-63
2022/12/04 05:53:22;;;;;;;11.02;7.60;;;19.20;53.70;;;;;;5012319;28;20235;-70
2022/12/04 05:55:59;;;;;;;8.23;6.55;;;19.20;53.80;;;;;;5022007;28;20144;-68
2022/12/04 05:58:25;;;;;;;9.40;7.05;;;19.10;53.60;;;;;;5023259;28;20041;-61
2022/12/04 06:00:51;;;;;;;9.63;7.00;;;19.20;53.60;;;;;;5023522;28;20252;-65
2022/12/04 06:03:17;;;;;;;11.35;7.53;;;19.20;53.70;;;;;;5044684;28;20150;-66
2022/12/04 06:05:42;;;;;;;9.75;7.00;;;19.10;53.60;;;;;;5021367;28;20436;-67
2022/12/04 06:08:08;;;;;;;11.82;7.50;;;19.20;53.60;;;;;;5024824;28;20025;-68
2022/12/04 06:10:34;;;;;;;9.15;7.07;;;19.10;53.50;;;;;;5024846;28;20125;-69
2022/12/04 06:12:59;;;;;;;9.95;7.10;;;19.10;53.50;;;;;;5021869;28;20041;-67
2022/12/04 06:15:25;;;;;;;9.23;6.90;;;19.10;53.50;;;;;;5020890;28;20167;-72
2022/12/04 06:17:50;;;;;;;10.25;7.38;;;19.10;53.50;;;;;;5028400;28;20126;-60
2022/12/04 06:20:16;;;;;;;9.63;7.38;;;19.10;53.50;;;;;;5024280;28;20038;-68
2022/12/04 06:22:42;;;;;;;9.65;7.10;;;19.10;53.40;;;;;;5021713;28;20048;-72
2022/12/04 06:25:08;;;;;;;9.45;7.30;;;19.10;53.50;;;;;;5027796;28;20491;-72
2022/12/04 06:27:34;;;;;;;10.68;7.65;;;19.10;53.40;;;;;;5036034;28;20046;-71
2022/12/04 06:30:00;;;;;;;10.30;7.00;;;19.10;53.40;;;;;;5027819;28;20036;-69
2022/12/04 06:32:25;;;;;;;10.23;7.45;;;19.10;53.30;;;;;;5025343;28;20511;-71
2022/12/04 06:34:53;;;;;;;10.60;7.38;;;19.20;53.40;;;;;;5029705;28;20033;-68
2022/12/04 06:37:20;;;;;;;10.57;7.65;;;19.10;53.40;;;;;;5025813;28;20654;-70
2022/12/04 06:39:45;;;;;;;10.27;7.78;;;19.10;53.30;;;;;;5026388;28;20037;-68
2022/12/04 06:42:11;;;;;;;10.60;7.40;;;19.10;53.30;;;;;;5036364;28;20174;-69
2022/12/04 06:44:36;;;;;;;9.98;7.40;;;19.10;53.30;;;;;;5031434;28;20065;-68
2022/12/04 06:47:05;;;;;;;;;;;19.10;53.30;;;;;;5025266;28;20053;-61
2022/12/04 06:49:31;;;;;;;9.98;7.07;;;19.10;53.30;;;;;;5025942;28;19929;-69
2022/12/04 06:51:56;;;;;;;9.88;7.68;;;19.10;53.30;;;;;;5026829;28;20037;-69
2022/12/04 06:54:22;;;;;;;10.20;6.88;;;19.10;53.30;;;;;;5008957;28;20060;-65
2022/12/04 06:56:48;;;;;;;11.05;7.30;;;19.10;53.30;;;;;;5027865;28;20132;-62
2022/12/04 06:59:14;;;;;;;9.80;7.45;;;19.10;53.20;;;;;;5025091;28;20058;-64
2022/12/04 07:01:39;;;;;;;10.57;7.55;;;19.10;53.20;;;;;;5018673;28;20041;-68
2022/12/04 07:04:05;;;;;;;10.40;7.40;;;19.10;53.20;;;;;;5026145;28;20766;-62
2022/12/04 07:06:33;;;;;;;9.32;7.45;;;19.10;53.30;;;;;;5025572;28;20057;-65
2022/12/04 07:09:02;;;;;;;13.40;7.88;;;19.10;53.20;;;;;;5030226;28;20103;-63
2022/12/04 07:11:30;;;;;;;10.15;7.72;;;19.10;53.20;;;;;;5026556;28;20038;-72
2022/12/04 07:13:56;;;;;;;11.48;8.07;;;19.10;53.30;;;;;;5023261;28;20037;-62
2022/12/04 07:16:25;;;;;;;10.98;8.05;;;19.10;53.30;;;;;;5027968;28;20090;-61
2022/12/04 07:18:52;;;;;;;;;;;19.10;53.20;;;;;;5026716;28;20504;-68
2022/12/04 07:21:20;;;;;;;20.88;9.68;;;19.10;53.30;;;;;;5020703;28;19928;-68
2022/12/04 07:23:52;;;;;;;11.57;8.55;;;19.00;53.00;;;;;;5033499;28;20091;-65
2022/12/04 07:26:19;;;;;;;12.65;8.75;;;19.10;53.00;;;;;;5026488;28;20049;-67
2022/12/04 07:28:45;;;;;;;11.88;8.38;;;19.00;53.00;;;;;;5024838;28;20087;-63
2022/12/04 07:31:13;;;;;;;13.65;8.25;;;19.00;53.20;;;;;;5024703;28;20045;-70
2022/12/04 07:33:39;;;;;;;11.10;8.13;;;19.00;53.20;;;;;;5024441;28;20511;-70
2022/12/04 07:36:07;;;;;;;15.98;8.52;;;19.00;53.30;;;;;;5026291;28;20041;-72
2022/12/04 07:38:34;;;;;;;11.43;8.40;;;19.00;53.20;;;;;;5023597;28;20046;-71
2022/12/04 07:41:01;;;;;;;11.95;8.27;;;19.00;53.30;;;;;;5023602;28;20082;-70
2022/12/04 07:43:29;;;;;;;13.63;8.88;;;19.00;53.20;;;;;;5026305;28;20240;-71
2022/12/04 07:45:55;;;;;;;11.38;8.07;;;19.10;53.30;;;;;;5022268;28;20201;-69
2022/12/04 07:48:21;;;;;;;11.57;8.00;;;19.10;53.30;;;;;;5025315;28;20056;-68
2022/12/04 07:50:46;;;;;;;12.68;8.73;;;19.00;53.30;;;;;;5021907;28;20033;-63
2022/12/04 07:53:12;;;;;;;11.60;8.38;;;19.00;53.40;;;;;;5014874;28;20418;-72
2022/12/04 07:55:38;;;;;;;13.27;8.63;;;19.00;53.40;;;;;;5024909;28;20507;-73
2022/12/04 07:58:03;;;;;;;13.10;8.60;;;19.00;53.40;;;;;;5027233;28;20049;-68
2022/12/04 08:00:29;;;;;;;13.18;8.65;;;19.00;53.30;;;;;;5025047;28;20073;-73
2022/12/04 08:02:54;;;;;;;11.80;8.27;;;19.00;53.40;;;;;;5023811;28;20041;-71
2022/12/04 08:05:20;;;;;;;13.55;9.52;;;19.00;53.40;;;;;;5025002;28;20539;-67
2022/12/04 08:07:46;;;;;;;13.07;8.52;;;19.00;53.40;;;;;;5020232;28;20674;-62
2022/12/04 08:10:12;;;;;;;13.32;8.77;;;18.90;53.40;;;;;;5028739;28;20048;-62
2022/12/04 08:12:37;;;;;;;16.02;8.73;;;18.90;53.50;;;;;;5018530;28;20056;-71
2022/12/04 08:15:04;;;;;;;13.95;9.10;;;18.90;53.60;;;;;;5022978;28;20041;-71
2022/12/04 08:17:30;;;;;;;16.55;11.32;;;18.90;53.70;;;;;;5019685;28;20037;-68
2022/12/04 08:19:56;;;;;;;21.67;13.93;;;19.00;54.10;;;;;;5023516;28;20045;-72
2022/12/04 08:22:23;;;;;;;20.83;13.75;;;19.00;54.30;;;;;;5019196;28;20625;-75
2022/12/04 08:24:49;;;;;;;21.58;13.20;;;19.00;54.40;;;;;;5024192;28;20079;-73
2022/12/04 08:27:15;;;;;;;23.55;12.63;;;19.00;54.50;;;;;;5023777;28;20088;-75
2022/12/04 08:29:40;;;;;;;19.42;12.30;;;19.00;54.60;;;;;;5042700;28;20420;-74
2022/12/04 08:32:06;;;;;;;19.33;12.07;;;19.10;54.60;;;;;;5021547;28;20168;-68
2022/12/04 08:34:32;;;;;;;20.15;12.15;;;19.10;54.60;;;;;;5019329;28;20045;-75
2022/12/04 08:36:58;;;;;;;18.98;11.82;;;19.20;54.60;;;;;;5027738;28;20738;-73
2022/12/04 08:39:24;;;;;;;22.30;11.82;;;19.20;54.60;;;;;;5026492;28;20045;-74
2022/12/04 08:41:50;;;;;;;17.77;11.80;;;19.20;54.60;;;;;;5021166;28;20053;-70
2022/12/04 08:44:16;;;;;;;15.75;11.75;;;19.20;54.60;;;;;;5021426;28;21128;-63
2022/12/04 08:46:41;;;;;;;14.48;10.98;;;19.30;54.60;;;;;;5022190;28;20041;-66
2022/12/04 08:49:07;;;;;;;15.07;11.25;;;19.20;54.50;;;;;;5021945;28;20041;-72
2022/12/04 08:51:36;;;;;;;15.35;11.30;;;19.20;54.50;;;;;;5021114;28;20048;-62
2022/12/04 08:54:04;;;;;;;17.33;11.48;;;19.20;54.40;;;;;;5011890;28;20056;-66
2022/12/04 08:56:31;;;;;;;19.67;11.80;;;19.20;54.40;;;;;;5027564;28;20045;-69
2022/12/04 08:58:57;;;;;;;19.65;11.68;;;19.20;54.40;;;;;;5021181;28;20053;-65
2022/12/04 09:01:24;;;;;;;17.15;11.13;;;19.20;54.40;;;;;;5021890;28;20038;-73
2022/12/04 09:03:50;;;;;;;17.88;11.40;;;19.30;54.50;;;;;;5019719;28;20041;-70
2022/12/04 09:06:17;;;;;;;16.75;11.38;;;19.30;54.50;;;;;;5023128;28;20045;-68
2022/12/04 09:08:43;;;;;;;16.10;11.57;;;19.30;54.50;;;;;;5022783;28;20037;-74
2022/12/04 09:11:20;;;;;;;16.38;11.45;;;19.30;54.50;;;;;;5023374;28;20048;-71
2022/12/04 09:13:46;;;;;;;17.45;11.35;;;19.30;54.50;;;;;;5021808;28;20446;-73
2022/12/04 09:16:15;;;;;;;17.33;11.32;;;19.30;54.60;;;;;;5023050;28;20626;-70
2022/12/04 09:18:41;;;;;;;15.60;11.10;;;19.30;54.60;;;;;;5019613;28;20155;-73
2022/12/04 09:21:09;;;;;;;71.80;25.63;;;19.30;54.60;;;;;;5018766;28;20029;-71
2022/12/04 09:23:36;;;;;;;42.55;16.40;;;19.20;54.60;;;;;;5024826;28;20369;-68
2022/12/04 09:26:05;;;;;;;35.75;13.98;;;19.20;54.60;;;;;;5023682;28;20119;-68
2022/12/04 09:28:31;;;;;;;27.55;13.85;;;19.30;54.60;;;;;;5023347;28;20076;-66
2022/12/04 09:31:00;;;;;;;32.58;13.70;;;19.20;54.50;;;;;;5028099;28;20428;-72
2022/12/04 09:33:26;;;;;;;22.60;12.05;;;19.20;54.60;;;;;;5020227;28;20119;-69
2022/12/04 09:36:08;;;;;;;26.52;13.23;;;19.20;54.60;;;;;;5018658;28;20462;-71
2022/12/04 09:38:36;;;;;;;24.10;12.07;;;19.20;54.50;;;;;;5017466;28;20123;-74
2022/12/04 09:41:47;;;;;;;26.00;13.30;;;19.20;54.70;;;;;;5019324;28;20041;-76
2022/12/04 09:44:22;;;;;;;22.25;12.48;;;19.20;54.60;;;;;;5027431;28;20053;-75
2022/12/04 09:47:00;;;;;;;26.92;11.98;;;19.20;54.60;;;;;;5018843;28;20505;-64
2022/12/04 09:49:42;;;;;;;21.00;11.95;;;19.20;54.70;;;;;;5024775;28;20140;-67
2022/12/04 09:52:24;;;;;;;22.15;11.68;;;19.10;54.60;;;;;;5026957;28;20087;-73
2022/12/04 09:54:51;;;;;;;24.65;12.15;;;19.10;54.60;;;;;;5008573;28;20083;-71
2022/12/04 09:57:40;;;;;;;20.75;11.95;;;19.20;54.70;;;;;;5023818;28;20110;-70
2022/12/04 10:00:10;;;;;;;19.15;12.10;;;19.10;54.60;;;;;;5026150;28;20504;-72
2022/12/04 10:02:38;;;;;;;23.60;12.05;;;19.20;54.70;;;;;;5019025;28;20483;-74
2022/12/04 10:05:06;;;;;;;26.52;12.43;;;19.20;54.70;;;;;;5028455;28;20036;-73
2022/12/04 10:07:54;;;;;;;21.08;11.38;;;19.20;54.70;;;;;;5023612;28;20069;-75
2022/12/04 10:10:37;;;;;;;18.17;11.35;;;19.20;54.60;;;;;;5026169;28;20033;-74
2022/12/04 10:13:29;;;;;;;24.15;11.23;;;19.20;54.60;;;;;;5021237;28;20053;-71
2022/12/04 10:16:22;;;;;;;20.17;10.73;;;19.20;54.70;;;;;;5024636;28;20171;-75
2022/12/04 10:19:02;;;;;;;25.02;12.15;;;19.20;54.60;;;;;;5017394;28;20053;-73
2022/12/04 10:21:42;;;;;;;23.27;10.88;;;19.20;54.70;;;;;;5020682;28;20037;-76
2022/12/04 10:24:40;;;;;;;21.65;10.60;;;19.20;54.60;;;;;;5031668;28;20516;-70
2022/12/04 10:27:19;;;;;;;23.05;11.25;;;19.20;54.50;;;;;;5026948;28;20052;-67
2022/12/04 10:29:48;;;;;;;18.98;10.82;;;19.20;54.50;;;;;;5022170;28;20045;-68
2022/12/04 10:32:26;;;;;;;18.27;10.73;;;19.30;54.60;;;;;;5025263;28;20052;-73
2022/12/04 10:34:55;;;;;;;19.30;10.95;;;19.20;54.50;;;;;;5022357;28;20102;-73
2022/12/04 10:37:22;;;;;;;17.50;10.98;;;19.20;54.40;;;;;;5030120;28;20052;-66
2022/12/04 10:40:04;;;;;;;20.15;11.07;;;19.20;54.60;;;;;;5026096;28;20049;-67
2022/12/04 10:42:48;;;;;;;19.52;10.70;;;19.20;54.30;;;;;;5020865;28;20033;-64
2022/12/04 10:45:13;;;;;;;19.35;10.18;;;19.20;54.70;;;;;;5028922;28;20118;-68
2022/12/04 10:47:47;;;;;;;19.98;10.88;;;19.20;54.20;;;;;;5028459;28;20053;-72
2022/12/04 10:50:18;;;;;;;23.60;10.23;;;19.30;54.20;;;;;;5031681;28;20076;-69
2022/12/04 10:52:44;;;;;;;16.77;10.48;;;19.30;54.00;;;;;;5027371;28;20045;-71
2022/12/04 10:55:10;;;;;;;15.90;10.35;;;19.30;54.00;;;;;;5015654;28;20050;-71
2022/12/04 10:57:42;;;;;;;15.68;9.65;;;19.30;53.90;;;;;;5032628;28;20034;-69
2022/12/04 11:00:26;;;;;;;17.25;10.35;;;19.30;53.90;;;;;;5039096;28;20057;-72
2022/12/04 11:02:54;;;;;;;17.88;9.60;;;19.40;53.90;;;;;;5018760;28;20044;-72
2022/12/04 11:05:28;;;;;;;17.92;10.18;;;19.30;53.80;;;;;;5025413;28;20065;-72
2022/12/04 11:07:55;;;;;;;20.67;10.20;;;19.30;53.70;;;;;;5020210;28;20045;-74
2022/12/04 11:10:23;;;;;;;17.42;10.18;;;19.30;53.70;;;;;;5027467;28;20055;-75
2022/12/04 11:13:03;;;;;;;15.25;9.80;;;19.30;53.70;;;;;;5025001;28;20041;-79
2022/12/04 11:15:30;;;;;;;17.80;9.70;;;19.30;53.60;;;;;;5021330;28;20046;-74
2022/12/04 11:18:14;;;;;;;16.08;9.45;;;19.30;53.70;;;;;;5025985;28;20048;-78
2022/12/04 11:20:48;;;;;;;13.27;9.40;;;19.30;53.60;;;;;;5024388;28;20056;-73
2022/12/04 11:23:15;;;;;;;16.95;10.35;;;19.30;53.60;;;;;;5027315;28;20073;-70
2022/12/04 11:25:50;;;;;;;17.27;9.98;;;19.30;53.60;;;;;;5046235;28;20480;-76
2022/12/04 11:28:24;;;;;;;16.63;9.20;;;19.30;53.60;;;;;;5028286;28;20061;-69
2022/12/04 11:30:54;;;;;;;18.05;9.65;;;19.30;53.60;;;;;;5024124;28;20037;-63
2022/12/04 11:33:44;;;;;;;16.08;9.38;;;19.30;53.60;;;;;;5023238;28;21538;-59
2022/12/04 11:36:20;;;;;;;14.20;9.45;;;19.30;53.50;;;;;;5025901;28;20056;-59
2022/12/04 11:38:46;;;;;;;16.67;9.07;;;19.30;53.60;;;;;;5029015;28;20045;-62
2022/12/04 11:41:30;;;;;;;16.15;8.95;;;19.30;53.60;;;;;;5023435;28;20030;-63
2022/12/04 11:43:57;;;;;;;16.77;9.07;;;19.30;53.50;;;;;;5026601;28;20064;-60
2022/12/04 11:46:25;;;;;;;23.73;9.48;;;19.30;53.60;;;;;;5020905;28;20060;-63
2022/12/04 11:48:51;;;;;;;;;;;19.30;53.70;;;;;;5023116;28;20056;-60
2022/12/04 11:51:52;;;;;;;15.57;8.80;;;19.30;53.80;;;;;;5025151;28;20567;-60
2022/12/04 11:54:29;;;;;;;15.25;9.02;;;19.30;53.70;;;;;;5015287;28;20684;-67
2022/12/04 11:57:13;;;;;;;13.18;9.05;;;19.30;53.70;;;;;;5028046;28;20044;-63
2022/12/04 12:00:01;;;;;;;12.20;8.48;;;19.30;53.80;;;;;;5028279;28;20056;-68
2022/12/04 12:02:42;;;;;;;17.02;9.35;;;19.30;53.80;;;;;;5023074;28;20041;-67
2022/12/04 12:05:59;;;;;;;15.80;8.88;;;19.40;53.80;;;;;;5026412;28;20041;-63
2022/12/04 12:08:49;;;;;;;13.67;8.23;;;19.30;53.80;;;;;;5022364;28;20037;-71
2022/12/04 12:11:25;;;;;;;13.30;8.52;;;19.30;53.80;;;;;;5017795;28;20053;-74
2022/12/04 12:14:02;;;;;;;15.80;8.63;;;19.30;53.80;;;;;;5017525;28;20045;-67
2022/12/04 12:16:53;;;;;;;14.07;8.60;;;19.30;53.80;;;;;;5025502;28;20073;-73
2022/12/04 12:19:56;;;;;;;12.88;8.35;;;19.30;53.80;;;;;;5023830;28;20166;-66
2022/12/04 12:22:51;;;;;;;10.68;7.60;;;19.30;53.80;;;;;;5025030;28;20041;-66
2022/12/04 12:25:43;;;;;;;13.23;8.70;;;19.40;53.90;;;;;;5023715;28;20128;-76
2022/12/04 12:28:41;;;;;;;13.73;8.93;;;19.30;53.90;;;;;;5023723;28;20076;-74
2022/12/04 12:31:49;;;;;;;13.00;8.30;;;19.30;53.90;;;;;;5022198;28;20666;-72
2022/12/04 12:34:30;;;;;;;13.60;7.83;;;19.30;54.00;;;;;;5017004;28;20512;-67
2022/12/04 12:36:58;;;;;;;12.82;8.02;;;19.30;54.00;;;;;;5023304;28;21380;-69
2022/12/04 12:39:37;;;;;;;11.77;8.35;;;19.30;54.50;;;;;;5023170;28;20440;-73
2022/12/04 12:42:13;;;;;;;11.82;7.93;;;19.30;54.10;;;;;;5018589;28;20131;-72
2022/12/04 12:44:46;;;;;;;13.65;7.68;;;19.30;54.10;;;;;;5036656;28;20390;-76
2022/12/04 12:47:20;;;;;;;12.15;8.25;;;19.30;54.10;;;;;;5022847;28;20065;-78
2022/12/04 12:49:57;;;;;;;11.95;8.30;;;19.30;54.10;;;;;;5020740;28;20049;-76
2022/12/04 12:52:43;;;;;;;13.15;8.00;;;19.30;54.10;;;;;;5023873;28;20083;-72
2022/12/04 12:55:18;;;;;;;16.33;8.25;;;19.30;54.00;;;;;;5014541;28;20602;-63
2022/12/04 12:57:51;;;;;;;14.77;8.20;;;19.30;54.10;;;;;;5029351;28;20614;-65
2022/12/04 13:00:20;;;;;;;13.88;7.90;;;19.30;54.00;;;;;;5025779;28;20064;-73
2022/12/04 13:03:11;;;;;;;13.82;8.02;;;19.30;54.00;;;;;;5019704;28;20045;-76
2022/12/04 13:05:41;;;;;;;13.50;7.95;;;19.30;53.90;;;;;;5015001;28;20049;-77
2022/12/04 13:08:24;;;;;;;10.88;7.60;;;19.30;53.90;;;;;;5021027;28;20436;-63
2022/12/04 13:11:05;;;;;;;11.75;7.35;;;19.30;54.60;;;;;;5024045;28;20041;-72
2022/12/04 13:13:40;;;;;;;13.57;7.72;;;19.30;53.80;;;;;;5018070;28;20049;-77
2022/12/04 13:16:14;;;;;;;14.07;7.70;;;19.30;53.80;;;;;;5022326;28;20049;-75